createdAt,value
2019-01-31T00:00:42.507Z,2.30
2019-01-31T00:05:22.943Z,2.30
2019-01-31T00:14:29.363Z,2.30
2019-01-31T00:18:56.626Z,2.30
2019-01-31T00:23:24.170Z,2.30
2019-01-31T00:28:02.746Z,2.30
2019-01-31T00:41:59.615Z,2.30
2019-01-31T00:46:43.883Z,2.30
2019-01-31T00:51:02.018Z,2.30
2019-01-31T00:55:34.255Z,2.30
2019-01-31T01:00:02.742Z,2.30
2019-01-31T01:04:32.223Z,2.30
2019-01-31T01:09:11.926Z,2.30
2019-01-31T01:18:11.728Z,2.20
2019-01-31T01:22:26.671Z,2.30
2019-01-31T01:31:19.702Z,2.30
2019-01-31T01:35:36.351Z,2.30
2019-01-31T01:48:40.819Z,2.20
2019-01-31T01:53:22.003Z,2.20
2019-01-31T01:57:59.165Z,2.20
2019-01-31T02:07:10.503Z,2.10
2019-01-31T02:12:13.993Z,2.00
2019-01-31T02:21:44.918Z,2.10
2019-01-31T02:30:35.001Z,2.10
2019-01-31T02:35:03.178Z,2.20
2019-01-31T02:39:54.791Z,2.10
2019-01-31T02:48:48.010Z,1.80
2019-01-31T03:06:21.739Z,1.50
2019-01-31T03:10:54.022Z,1.50
2019-01-31T03:15:20.168Z,1.40
2019-01-31T03:19:54.992Z,1.50
2019-01-31T03:24:25.699Z,1.50
2019-01-31T03:33:03.239Z,1.50
2019-01-31T03:50:41.787Z,1.60
2019-01-31T03:55:17.246Z,1.50
2019-01-31T03:59:31.802Z,1.60
2019-01-31T04:07:50.350Z,1.70
2019-01-31T04:20:00.698Z,1.80
2019-01-31T04:24:04.439Z,1.80
2019-01-31T04:32:11.490Z,1.80
2019-01-31T04:36:15.246Z,1.80
2019-01-31T05:00:37.902Z,1.90
2019-01-31T05:04:41.647Z,2.00
2019-01-31T05:08:45.391Z,1.90
2019-01-31T05:12:49.138Z,1.90
2019-01-31T05:20:56.162Z,2.00
2019-01-31T05:24:59.902Z,2.00
2019-01-31T05:29:03.638Z,2.00
2019-01-31T05:33:07.837Z,1.90
2019-01-31T05:37:11.578Z,2.00
2019-01-31T05:45:19.039Z,2.00
2019-01-31T05:49:22.774Z,2.00
2019-01-31T06:01:33.350Z,1.80
2019-01-31T06:05:37.518Z,1.80
2019-01-31T06:09:41.364Z,1.80
2019-01-31T06:13:45.398Z,1.80
2019-01-31T06:17:49.274Z,1.80
2019-01-31T06:21:53.013Z,1.80
2019-01-31T06:30:00.203Z,1.70
2019-01-31T06:34:04.046Z,1.70
2019-01-31T06:42:11.430Z,1.70
2019-01-31T06:46:15.170Z,1.70
2019-01-31T06:54:22.202Z,1.80
2019-01-31T06:58:25.926Z,1.80
2019-01-31T07:06:32.977Z,1.70
2019-01-31T07:30:53.977Z,1.70
2019-01-31T07:34:58.216Z,1.70
2019-01-31T08:03:22.976Z,1.40
2019-01-31T08:15:35.659Z,1.40
2019-01-31T08:19:39.545Z,1.50
2019-01-31T08:27:47.281Z,1.20
2019-01-31T08:48:05.303Z,1.50
2019-01-31T08:52:09.083Z,1.60
2019-01-31T09:21:03.307Z,1.60
2019-01-31T09:43:05.105Z,1.60
2019-01-31T09:56:37.063Z,1.60
2019-01-31T10:01:23.924Z,1.70
2019-01-31T10:10:30.956Z,1.80
2019-01-31T10:15:19.821Z,1.80
2019-01-31T10:28:52.352Z,2.00
2019-01-31T10:33:29.398Z,1.90
2019-01-31T10:46:08.847Z,2.40
2019-01-31T11:25:14.668Z,2.00
2019-01-31T11:34:18.497Z,1.80
2019-01-31T11:38:48.735Z,1.70
2019-01-31T11:52:31.041Z,1.70
2019-01-31T12:01:02.006Z,1.80
2019-01-31T12:05:06.615Z,2.00
2019-01-31T12:09:21.601Z,2.00
2019-01-31T12:21:32.280Z,1.90
2019-01-31T12:41:49.759Z,2.20
2019-01-31T12:45:53.783Z,2.40
2019-01-31T13:14:19.047Z,2.40
2019-01-31T13:26:29.751Z,2.40
2019-01-31T13:30:33.696Z,2.40
2019-01-31T13:38:40.908Z,2.60
2019-01-31T13:58:58.676Z,2.30
2019-01-31T14:07:06.114Z,2.30
2019-01-31T14:11:09.994Z,2.30
2019-01-31T14:15:15.098Z,2.50
2019-01-31T14:35:32.796Z,2.70
2019-01-31T14:39:36.602Z,2.70
2019-01-31T14:47:43.931Z,2.60
2019-01-31T14:51:47.702Z,2.60
2019-01-31T15:03:58.335Z,2.60
2019-01-31T15:20:18.336Z,2.80
2019-01-31T15:40:41.375Z,2.30
2019-01-31T16:05:02.598Z,1.60
2019-01-31T16:09:08.678Z,1.60
2019-01-31T16:45:42.519Z,2.10
2019-01-31T16:53:50.631Z,2.20
2019-01-31T17:01:58.049Z,2.20
2019-01-31T17:06:02.076Z,2.30
2019-01-31T17:26:19.791Z,1.50
2019-01-31T17:38:33.076Z,0.90
2019-01-31T17:46:40.160Z,0.60
2019-01-31T17:50:44.651Z,0.50
2019-01-31T18:06:58.902Z,0.30
2019-01-31T18:15:06.915Z,0.20
2019-01-31T18:19:10.991Z,0.10
2019-01-31T18:23:14.960Z,0.10
2019-01-31T18:27:19.186Z,0.10
2019-01-31T18:31:23.155Z,0.10
2019-01-31T18:43:34.807Z,0.00
2019-01-31T18:47:38.727Z,0.00
2019-01-31T19:12:00.958Z,0.50
2019-01-31T19:28:21.456Z,0.80
2019-01-31T19:44:38.631Z,1.00
2019-01-31T19:48:42.534Z,1.30
2019-01-31T20:00:53.590Z,1.30
2019-01-31T20:25:16.365Z,0.30
2019-01-31T20:41:31.233Z,0.00
2019-01-31T21:01:49.818Z,0.50
2019-01-31T21:05:54.102Z,0.70
2019-01-31T21:09:59.724Z,0.80
2019-01-31T21:18:09.585Z,1.00
2019-01-31T21:22:13.863Z,1.10
2019-01-31T21:26:18.143Z,1.10
2019-01-31T21:42:37.613Z,1.20
2019-01-31T21:58:52.265Z,0.80
2019-01-31T22:06:59.683Z,0.70
2019-01-31T22:11:03.811Z,0.60
2019-01-31T22:15:12.176Z,0.40
2019-01-31T22:19:15.975Z,0.60
2019-01-31T22:47:41.057Z,0.60
2019-01-31T23:03:56.244Z,0.90
2019-01-31T23:24:14.276Z,1.40
2019-01-31T23:44:32.089Z,1.10
2019-01-31T23:48:36.475Z,0.90
2019-01-31T23:52:40.668Z,0.80
